Time;durP1;ratioP1;P1;durP2;ratioP2;P2;SDS_P1;SDS_P2;PMS_P1;PMS_P2;Temp;Humidity;BMP_temperature;BMP_pressure;BME280_temperature;BME280_humidity;BME280_pressure;Samples;Min_cycle;Max_cycle;Signal;HPM_P1;HPM_P2
2023/07/20 00:01:28;;;;;;;5.40;2.58;;;;;;;13.41;79.44;97939.84;4945190;28;20619;-71
2023/07/20 00:03:55;;;;;;;2.60;2.40;;;;;;;13.40;79.63;97928.31;4939249;28;20055;-71
2023/07/20 00:06:22;;;;;;;3.58;2.10;;;;;;;13.38;79.48;97945.53;4939512;28;20043;-70
2023/07/20 00:08:48;;;;;;;4.35;2.22;;;;;;;13.36;80.07;97943.03;4940140;28;20054;-72
2023/07/20 00:11:13;;;;;;;8.55;2.22;;;;;;;13.33;80.04;97948.69;4936868;28;20042;-72
2023/07/20 00:13:39;;;;;;;7.18;2.17;;;;;;;13.33;80.37;97948.69;4936901;28;20039;-70
2023/07/20 00:16:04;;;;;;;5.47;1.92;;;;;;;13.31;80.33;97956.09;4946142;28;20046;-67
2023/07/20 00:18:29;;;;;;;3.47;2.40;;;;;;;13.27;80.24;97938.69;4954199;28;20134;-69
2023/07/20 00:20:54;;;;;;;23.40;3.63;;;;;;;13.27;80.58;97954.75;4955714;28;20050;-71
2023/07/20 00:23:22;;;;;;;3.40;1.85;;;;;;;13.26;80.76;97945.03;4955325;28;20501;-70
2023/07/20 00:25:47;;;;;;;4.15;1.95;;;;;;;13.24;80.62;97948.88;4933774;28;20081;-72
2023/07/20 00:28:12;;;;;;;3.90;1.98;;;;;;;13.24;80.18;97949.72;4933731;28;20132;-72
2023/07/20 00:30:38;;;;;;;2.75;2.40;;;;;;;13.23;80.63;97964.09;4914912;28;20549;-72
2023/07/20 00:33:03;;;;;;;2.85;2.30;;;;;;;13.22;80.65;97957.06;4898804;29;20070;-71
2023/07/20 00:35:28;;;;;;;4.40;1.83;;;;;;;13.24;80.78;97962.25;4915334;28;20051;-71
2023/07/20 00:37:54;;;;;;;2.95;1.75;;;;;;;13.21;80.72;97960.75;4933392;28;20062;-70
2023/07/20 00:40:20;;;;;;;6.50;1.98;;;;;;;13.21;81.20;97959.91;4921274;28;20055;-70
2023/07/20 00:42:45;;;;;;;7.32;3.58;;;;;;;13.19;80.55;97956.59;4917563;28;20042;-71
2023/07/20 00:45:10;;;;;;;6.70;1.45;;;;;;;13.16;81.06;97960.44;4918349;28;20038;-68
2023/07/20 00:47:36;;;;;;;1.63;1.52;;;;;;;13.15;80.67;97960.59;4919108;28;20409;-71
2023/07/20 00:50:02;;;;;;;3.03;2.17;;;;;;;13.13;81.16;97963.41;4919595;28;20043;-72
2023/07/20 00:52:31;;;;;;;2.53;2.30;;;;;;;13.11;81.02;97965.41;4917345;28;20050;-72
2023/07/20 00:54:56;;;;;;;9.75;2.35;;;;;;;13.09;81.24;97962.88;4917848;28;20043;-73
2023/07/20 00:57:25;;;;;;;3.20;2.30;;;;;;;13.08;81.19;97977.28;4941799;28;20050;-72
2023/07/20 00:59:51;;;;;;;2.58;2.05;;;;;;;13.06;81.00;97967.75;4943245;28;20056;-64
2023/07/20 01:02:16;;;;;;;4.40;2.13;;;;;;;13.04;80.80;97965.22;4954457;28;20132;-64
2023/07/20 01:04:41;;;;;;;4.18;2.28;;;;;;;13.02;81.62;97961.88;4946513;28;20039;-64
2023/07/20 01:07:25;;;;;;;2.88;1.92;;;;;;;13.05;81.66;97958.88;4948612;28;20053;-65
2023/07/20 01:10:05;;;;;;;5.03;2.00;;;;;;;13.06;81.53;97967.75;4944802;28;20049;-62
2023/07/20 01:12:41;;;;;;;3.22;1.95;;;;;;;13.05;81.70;97972.25;4943307;28;20042;-63
2023/07/20 01:15:07;;;;;;;3.97;1.80;;;;;;;13.01;80.96;97970.06;4939981;28;20558;-63
2023/07/20 01:17:34;;;;;;;3.05;1.83;;;;;;;12.99;81.49;97956.84;4957981;28;20047;-62
2023/07/20 01:20:00;;;;;;;5.07;2.40;;;;;;;12.99;81.20;97969.41;4944591;28;20034;-63
2023/07/20 01:22:44;;;;;;;4.35;1.75;;;;;;;13.02;81.46;97963.72;4939440;28;20054;-71
2023/07/20 01:25:12;;;;;;;4.27;2.67;;;;;;;12.94;81.73;97969.91;4945255;28;20061;-63
2023/07/20 01:28:05;;;;;;;3.92;1.85;;;;;;;12.97;81.29;97963.41;4955006;28;20046;-66
2023/07/20 01:31:04;;;;;;;4.03;2.10;;;;;;;12.98;81.95;97965.88;4957044;28;20413;-65
2023/07/20 01:33:33;;;;;;;2.78;1.80;;;;;;;12.94;81.53;97979.78;4973388;28;20046;-67
2023/07/20 01:36:00;;;;;;;2.10;1.98;;;;;;;12.93;82.13;97983.44;4973653;28;20057;-65
2023/07/20 01:38:28;;;;;;;2.22;1.90;;;;;;;12.92;82.19;97979.09;4955639;28;20053;-68
2023/07/20 01:40:53;;;;;;;2.47;1.73;;;;;;;12.91;82.35;97974.75;4957166;28;20053;-64
2023/07/20 01:43:19;;;;;;;4.20;2.20;;;;;;;12.92;81.93;97965.72;4923915;28;20057;-63
2023/07/20 01:45:44;;;;;;;5.90;2.05;;;;;;;12.92;82.52;97968.41;4957681;28;20042;-63
2023/07/20 01:48:12;;;;;;;2.63;1.95;;;;;;;12.93;82.20;97972.75;4970226;28;20046;-63
2023/07/20 01:50:38;;;;;;;4.55;2.25;;;;;;;12.94;82.17;97969.06;4957480;28;20046;-63
2023/07/20 01:53:03;;;;;;;2.03;1.83;;;;;;;12.94;82.73;97975.25;4951668;28;20054;-62
2023/07/20 01:55:28;;;;;;;3.13;1.75;;;;;;;12.94;82.21;97963.72;4956606;28;20048;-67
2023/07/20 01:57:55;;;;;;;7.80;2.50;;;;;;;12.94;82.16;97979.78;4972924;28;20061;-68
2023/07/20 02:00:23;;;;;;;5.82;2.08;;;;;;;12.96;81.89;97972.41;4972191;28;20046;-67
2023/07/20 02:02:50;;;;;;;3.80;2.38;;;;;;;13.00;82.57;97969.22;4973301;28;20043;-64
2023/07/20 02:05:16;;;;;;;2.25;1.92;;;;;;;13.04;81.97;97975.09;4973027;28;20038;-64
2023/07/20 02:07:41;;;;;;;33.55;3.63;;;;;;;13.10;82.47;97975.25;4957796;28;20042;-65
2023/07/20 02:10:07;;;;;;;3.40;2.10;;;;;;;13.16;81.93;97978.31;4966366;28;20038;-64
2023/07/20 02:12:34;;;;;;;2.42;2.22;;;;;;;13.19;81.75;97924.47;4971923;28;20022;-68
2023/07/20 02:14:59;;;;;;;6.30;2.58;;;;;;;13.25;81.64;97977.31;4960580;28;20460;-64
2023/07/20 02:17:25;;;;;;;3.13;2.22;;;;;;;13.28;81.30;97993.88;4949790;28;20405;-65
2023/07/20 02:20:10;;;;;;;2.80;1.85;;;;;;;13.38;81.24;97977.66;4957516;28;20042;-64
2023/07/20 02:22:39;;;;;;;4.20;2.30;;;;;;;13.40;80.75;97976.50;4958557;28;20053;-65
2023/07/20 02:25:05;;;;;;;4.07;1.27;;;;;;;13.49;81.03;97979.16;4941387;28;20053;-66
2023/07/20 02:27:30;;;;;;;5.32;2.17;;;;;;;13.55;80.95;97968.59;4957944;28;20053;-66
2023/07/20 02:29:56;;;;;;;2.72;2.05;;;;;;;13.61;80.07;97967.09;4957461;28;20390;-64
2023/07/20 02:32:21;;;;;;;2.08;1.52;;;;;;;13.68;79.99;97965.41;4957304;28;20049;-66
2023/07/20 02:34:47;;;;;;;4.00;2.00;;;;;;;13.75;80.17;97974.44;4957220;28;20097;-68
2023/07/20 02:37:13;;;;;;;2.70;2.00;;;;;;;13.81;79.55;97971.06;4955552;28;20517;-65
2023/07/20 02:39:39;;;;;;;5.38;2.45;;;;;;;13.89;79.11;97979.06;4956078;28;20048;-65
2023/07/20 02:42:05;;;;;;;4.32;2.25;;;;;;;13.96;78.96;97988.13;4939904;28;20046;-64
2023/07/20 02:44:30;;;;;;;1.90;1.75;;;;;;;14.01;78.41;97977.72;4955885;28;20048;-64
2023/07/20 02:46:55;;;;;;;4.80;2.00;;;;;;;14.07;78.28;97990.44;4957032;28;20777;-69
2023/07/20 02:49:20;;;;;;;4.50;2.22;;;;;;;14.12;77.62;97982.69;4939634;28;20050;-65
2023/07/20 02:51:46;;;;;;;2.70;2.40;;;;;;;14.16;77.27;97978.69;4947548;28;20058;-68
2023/07/20 02:54:11;;;;;;;5.78;2.20;;;;;;;14.26;77.70;97978.47;4920824;28;20055;-67
2023/07/20 02:56:36;;;;;;;4.53;2.58;;;;;;;14.34;76.52;97982.97;4938034;28;20482;-65
2023/07/20 02:59:02;;;;;;;5.38;2.50;;;;;;;14.44;76.88;97986.31;4953663;28;20065;-64
2023/07/20 03:01:29;;;;;;;7.13;2.13;;;;;;;14.56;76.11;97984.09;4942535;28;20043;-63
2023/07/20 03:03:54;;;;;;;3.47;2.30;;;;;;;14.55;75.55;97993.16;4954521;28;20046;-63
2023/07/20 03:06:20;;;;;;;3.47;1.80;;;;;;;14.60;75.42;97986.22;4941784;28;20076;-64
2023/07/20 03:08:47;;;;;;;4.07;2.03;;;;;;;14.68;75.32;97983.50;4955391;28;20047;-65
2023/07/20 03:11:16;;;;;;;4.53;1.83;;;;;;;14.79;75.07;97996.50;4939185;28;20053;-64
2023/07/20 03:13:42;;;;;;;3.65;2.25;;;;;;;14.87;74.99;98001.84;4940972;28;20058;-63
2023/07/20 03:16:12;;;;;;;4.05;1.92;;;;;;;15.01;74.85;97989.50;4950651;28;20043;-64
2023/07/20 03:18:40;;;;;;;3.28;2.10;;;;;;;15.18;75.03;97995.59;4936290;28;20050;-63
2023/07/20 03:21:07;;;;;;;2.83;1.88;;;;;;;15.34;74.45;98006.25;4938987;28;20413;-65
2023/07/20 03:23:33;;;;;;;2.80;1.63;;;;;;;15.47;73.72;98001.06;4970977;28;20050;-64
2023/07/20 03:25:58;;;;;;;3.03;1.70;;;;;;;15.64;73.64;97988.38;4954262;28;20061;-72
2023/07/20 03:28:23;;;;;;;2.83;1.88;;;;;;;15.78;73.21;97992.13;4955319;28;20068;-72
2023/07/20 03:30:58;;;;;;;3.58;2.00;;;;;;;16.01;72.71;97998.28;4956378;28;20046;-72
2023/07/20 03:33:27;;;;;;;3.25;2.00;;;;;;;16.17;72.34;98003.47;4971641;28;20061;-73
2023/07/20 03:35:53;;;;;;;3.35;1.80;;;;;;;16.41;71.44;97999.66;4956530;28;20038;-72
2023/07/20 03:38:19;;;;;;;2.08;1.65;;;;;;;16.64;70.77;97994.19;4956415;28;20038;-72
2023/07/20 03:40:51;;;;;;;2.17;1.75;;;;;;;16.87;69.77;98021.81;4956320;28;20053;-73
2023/07/20 03:43:17;;;;;;;2.55;2.08;;;;;;;17.05;69.34;97998.00;4954627;28;20046;-72
2023/07/20 03:45:43;;;;;;;4.43;1.50;;;;;;;17.28;68.76;98030.13;4971469;28;20057;-71
2023/07/20 03:48:08;;;;;;;4.22;1.60;;;;;;;17.56;67.18;98000.56;4940236;28;20042;-73
2023/07/20 03:50:33;;;;;;;5.78;2.15;;;;;;;17.74;65.96;97997.44;4971376;28;20540;-74
2023/07/20 03:52:59;;;;;;;2.00;1.38;;;;;;;17.93;66.03;97993.25;4954715;28;20042;-72
2023/07/20 03:55:24;;;;;;;3.38;1.67;;;;;;;18.11;66.07;97999.78;4971233;28;20050;-71
2023/07/20 03:57:50;;;;;;;3.08;2.30;;;;;;;18.26;65.07;98018.56;4955991;28;20527;-72
2023/07/20 04:00:16;;;;;;;2.28;1.95;;;;;;;18.42;64.93;98002.03;4956153;28;20054;-72
2023/07/20 04:02:41;;;;;;;3.80;1.40;;;;;;;18.52;64.58;97996.28;4956129;28;20041;-71
2023/07/20 04:05:07;;;;;;;4.70;2.30;;;;;;;18.57;63.78;98003.78;4971038;28;20050;-71
2023/07/20 04:07:32;;;;;;;4.97;2.42;;;;;;;18.47;63.32;98021.19;4971332;28;20073;-71
2023/07/20 04:09:57;;;;;;;4.22;2.17;;;;;;;18.42;63.19;98018.25;4956046;28;20046;-72
2023/07/20 04:12:22;;;;;;;7.70;2.35;;;;;;;18.46;63.40;98007.88;4955978;28;20045;-70
2023/07/20 04:14:47;;;;;;;4.53;2.10;;;;;;;18.48;63.25;98001.28;4971101;28;20050;-71
2023/07/20 04:17:16;;;;;;;2.45;1.75;;;;;;;18.59;63.66;98004.47;4971478;28;20050;-72
2023/07/20 04:19:42;;;;;;;4.10;2.13;;;;;;;18.63;63.19;97997.59;4938728;28;20053;-72
2023/07/20 04:22:07;;;;;;;4.10;2.38;;;;;;;18.70;63.16;98003.88;4956116;28;20058;-71
2023/07/20 04:24:33;;;;;;;4.43;2.05;;;;;;;18.79;62.52;98013.47;4956031;28;20523;-71
2023/07/20 04:26:58;;;;;;;1.88;1.75;;;;;;;18.94;62.22;98002.53;4953759;28;20053;-72
2023/07/20 04:29:23;;;;;;;3.90;2.33;;;;;;;19.07;61.67;98011.50;4938607;28;20053;-71
2023/07/20 04:31:48;;;;;;;2.35;2.15;;;;;;;19.20;61.41;98027.75;4970970;28;20042;-72
2023/07/20 04:34:14;;;;;;;3.83;1.95;;;;;;;19.37;61.39;98016.56;4971545;28;20052;-72
2023/07/20 04:36:41;;;;;;;1.70;1.60;;;;;;;19.49;60.83;98006.84;4959626;28;20038;-72
2023/07/20 04:39:08;;;;;;;2.40;2.05;;;;;;;19.66;60.32;98015.38;4957843;28;20509;-72
2023/07/20 04:41:37;;;;;;;2.53;1.85;;;;;;;19.76;59.93;98011.22;4974946;28;20042;-72
2023/07/20 04:44:03;;;;;;;3.22;1.90;;;;;;;19.98;59.41;98019.16;4926080;28;20058;-72
2023/07/20 04:46:29;;;;;;;3.95;2.40;;;;;;;20.29;58.92;98006.63;4957783;28;20421;-72
2023/07/20 04:48:56;;;;;;;1.63;1.50;;;;;;;20.63;58.03;98013.66;4974749;28;20058;-71
2023/07/20 04:51:22;;;;;;;2.38;1.92;;;;;;;21.00;57.47;98013.91;4974470;28;20050;-72
2023/07/20 04:53:51;;;;;;;1.58;1.35;;;;;;;21.38;55.61;98017.50;4974664;28;20050;-72
2023/07/20 04:56:16;;;;;;;3.00;2.25;;;;;;;21.72;55.20;98010.78;4941962;28;20057;-72
2023/07/20 04:58:41;;;;;;;3.30;1.60;;;;;;;22.05;54.16;98007.81;4959134;28;20366;-71
2023/07/20 05:01:08;;;;;;;2.25;1.88;;;;;;;22.40;52.78;97999.97;4974498;28;20050;-71
2023/07/20 05:03:35;;;;;;;3.05;1.88;;;;;;;22.73;51.97;97998.78;4974313;28;20042;-72
2023/07/20 05:06:00;;;;;;;4.47;2.60;;;;;;;23.07;50.97;98021.78;4974501;28;20058;-72
2023/07/20 05:08:25;;;;;;;6.80;2.13;;;;;;;23.31;50.31;98009.13;4974398;28;20046;-71
2023/07/20 05:10:51;;;;;;;8.88;2.33;;;;;;;23.52;49.64;98009.47;4974333;28;20054;-73
2023/07/20 05:13:16;;;;;;;6.03;2.35;;;;;;;23.61;48.18;98023.56;4958922;28;20042;-73
2023/07/20 05:15:42;;;;;;;3.88;2.22;;;;;;;23.67;47.64;98005.50;4974101;28;20501;-72
2023/07/20 05:18:11;;;;;;;3.50;1.95;;;;;;;23.82;47.48;98019.47;4926218;28;20042;-72
2023/07/20 05:20:37;;;;;;;6.40;3.15;;;;;;;23.98;47.45;98013.38;4974310;28;20152;-71
2023/07/20 05:23:02;;;;;;;4.57;2.45;;;;;;;24.15;47.08;98027.13;4957624;28;20045;-71
2023/07/20 05:25:27;;;;;;;2.30;2.08;;;;;;;24.20;46.96;97995.38;4974227;28;20054;-71
2023/07/20 05:27:55;;;;;;;10.35;2.10;;;;;;;24.28;46.39;98007.84;4957635;28;20509;-71
2023/07/20 05:30:21;;;;;;;3.47;1.75;;;;;;;24.36;45.90;98004.78;4959363;28;20049;-71
2023/07/20 05:32:50;;;;;;;2.53;2.03;;;;;;;24.51;45.71;98004.28;4958750;28;20382;-72
2023/07/20 05:35:18;;;;;;;1.85;1.52;;;;;;;24.68;44.91;98004.38;4959120;28;20054;-71
2023/07/20 05:37:45;;;;;;;3.00;1.98;;;;;;;24.87;44.68;98009.44;4958930;28;20472;-71
2023/07/20 05:40:12;;;;;;;3.50;2.30;;;;;;;25.12;43.89;98013.78;4956769;28;20880;-73
2023/07/20 05:42:38;;;;;;;5.10;2.08;;;;;;;25.42;43.78;97998.00;4954347;28;20057;-72
2023/07/20 05:45:03;;;;;;;2.53;2.08;;;;;;;25.71;42.67;98008.94;4939537;28;20047;-71
2023/07/20 05:47:29;;;;;;;2.35;2.10;;;;;;;25.88;42.35;98007.03;4947685;28;20050;-72
2023/07/20 05:49:54;;;;;;;2.60;1.95;;;;;;;26.12;41.76;98008.50;4959130;28;20074;-71
2023/07/20 05:52:19;;;;;;;2.10;1.90;;;;;;;26.27;41.16;97984.22;4958853;28;20038;-72
2023/07/20 05:54:45;;;;;;;2.80;2.00;;;;;;;26.60;40.54;97999.72;4958804;28;20412;-75
2023/07/20 05:57:10;;;;;;;3.60;1.80;;;;;;;26.93;39.50;98020.69;4959629;28;20050;-70
2023/07/20 05:59:36;;;;;;;4.13;1.95;;;;;;;27.34;38.89;98018.41;4941541;28;20057;-70
2023/07/20 06:02:01;;;;;;;3.47;2.20;;;;;;;27.84;38.37;97998.97;4973428;28;20049;-71
2023/07/20 06:04:26;;;;;;;2.10;1.67;;;;;;;28.40;36.85;97985.75;4958221;28;20050;-71
2023/07/20 06:06:51;;;;;;;3.20;1.98;;;;;;;28.96;35.91;97995.13;4956970;28;20062;-70
2023/07/20 06:09:16;;;;;;;7.65;1.88;;;;;;;29.48;34.99;97994.19;4956570;28;20065;-71
2023/07/20 06:11:41;;;;;;;1.75;1.60;;;;;;;30.06;34.03;97992.09;4958269;28;20038;-71
2023/07/20 06:14:07;;;;;;;3.80;1.98;;;;;;;30.50;33.00;97975.81;4958285;28;20054;-71
2023/07/20 06:16:32;;;;;;;3.05;1.90;;;;;;;30.99;32.32;98003.47;4957832;28;20037;-71
2023/07/20 06:18:59;;;;;;;5.00;2.45;;;;;;;31.64;31.47;97991.34;4973045;28;20437;-71
2023/07/20 06:21:24;;;;;;;3.55;2.20;;;;;;;32.40;30.50;98003.69;4957959;28;20042;-71
2023/07/20 06:23:50;;;;;;;4.07;2.05;;;;;;;33.20;29.91;97992.88;4940220;28;20061;-71
2023/07/20 06:26:15;;;;;;;2.40;2.20;;;;;;;34.00;28.42;97998.41;4957686;28;20387;-71
2023/07/20 06:28:40;;;;;;;3.08;2.30;;;;;;;34.54;27.49;98003.28;4957748;28;20493;-66
2023/07/20 06:31:06;;;;;;;4.13;2.33;;;;;;;34.66;27.54;97988.94;4955948;28;20050;-65
2023/07/20 06:33:31;;;;;;;2.92;2.38;;;;;;;34.91;27.06;97963.56;4957391;28;20050;-65
2023/07/20 06:35:59;;;;;;;5.85;2.85;;;;;;;35.25;26.60;97978.94;4956999;28;20037;-64
2023/07/20 06:38:24;;;;;;;3.08;2.78;;;;;;;35.70;26.35;97981.81;4953494;28;20046;-70
2023/07/20 06:40:51;;;;;;;4.28;3.25;;;;;;;36.06;25.71;97988.16;4954135;28;20038;-71
2023/07/20 06:43:16;;;;;;;3.10;2.78;;;;;;;36.35;25.19;97988.53;4972407;28;20058;-68
2023/07/20 06:45:42;;;;;;;5.30;3.20;;;;;;;36.66;24.96;97996.06;4957203;28;20046;-69
2023/07/20 06:48:07;;;;;;;12.52;3.55;;;;;;;36.82;24.29;97988.16;4957266;28;20402;-69
2023/07/20 06:50:33;;;;;;;3.63;2.88;;;;;;;37.04;24.37;97980.56;4957036;28;20041;-69
2023/07/20 06:52:59;;;;;;;4.90;3.22;;;;;;;37.34;23.81;97980.84;4957204;28;20042;-68
2023/07/20 06:55:24;;;;;;;3.33;3.03;;;;;;;37.72;23.25;97983.81;4957558;28;20046;-68
2023/07/20 06:57:51;;;;;;;3.80;3.10;;;;;;;38.07;22.81;97987.41;4956208;28;20528;-69
2023/07/20 07:00:16;;;;;;;4.25;3.35;;;;;;;38.40;22.82;97994.09;4956894;28;20144;-69
2023/07/20 07:02:41;;;;;;;7.65;3.33;;;;;;;38.73;22.56;97985.16;4956629;28;20397;-69
2023/07/20 07:05:07;;;;;;;4.20;3.40;;;;;;;39.07;21.91;97982.25;4955398;28;20050;-68
2023/07/20 07:07:32;;;;;;;5.47;3.50;;;;;;;39.28;21.51;97981.50;4956065;28;20374;-69
2023/07/20 07:09:57;;;;;;;3.70;3.38;;;;;;;39.20;21.44;97975.63;4957030;28;20052;-69
2023/07/20 07:12:22;;;;;;;4.10;3.25;;;;;;;39.43;20.96;97976.16;4957995;28;20042;-69
2023/07/20 07:14:48;;;;;;;3.53;3.25;;;;;;;39.48;21.01;97983.53;4956862;28;20052;-69
2023/07/20 07:17:14;;;;;;;3.60;3.30;;;;;;;38.48;21.32;97993.28;4956749;28;20042;-69
2023/07/20 07:19:40;;;;;;;5.80;3.70;;;;;;;37.63;22.25;97992.16;4956653;28;20428;-71
2023/07/20 07:22:05;;;;;;;5.40;3.50;;;;;;;38.32;21.76;97989.38;4954830;28;20057;-70
2023/07/20 07:24:33;;;;;;;3.75;3.35;;;;;;;39.04;21.07;97985.75;4956543;28;20045;-69
2023/07/20 07:26:59;;;;;;;5.43;3.50;;;;;;;38.92;21.22;97990.34;4951901;28;20046;-64
2023/07/20 07:29:24;;;;;;;3.95;3.65;;;;;;;39.35;20.76;97979.81;4949277;28;20408;-64
2023/07/20 07:31:49;;;;;;;6.13;4.00;;;;;;;39.91;20.61;97980.41;4956159;28;20050;-64
2023/07/20 07:34:14;;;;;;;6.05;3.85;;;;;;;40.47;19.85;97986.47;4970551;28;20425;-65
2023/07/20 07:36:39;;;;;;;6.93;4.10;;;;;;;41.07;19.33;97977.38;4956336;28;20065;-64
2023/07/20 07:39:05;;;;;;;4.90;4.40;;;;;;;41.64;18.91;97985.63;4956476;28;20057;-66
2023/07/20 07:41:30;;;;;;;5.22;4.82;;;;;;;42.20;18.19;97974.47;4956076;28;20050;-65
2023/07/20 07:43:55;;;;;;;5.57;4.70;;;;;;;42.75;18.04;97992.38;4951820;28;20042;-65
2023/07/20 07:46:21;;;;;;;4.68;4.38;;;;;;;43.11;17.80;97991.31;4935746;28;20039;-66
2023/07/20 07:48:46;;;;;;;5.15;4.68;;;;;;;42.14;18.37;97987.09;4936851;28;20406;-63
2023/07/20 07:51:13;;;;;;;5.13;4.72;;;;;;;40.32;19.62;97979.53;4936799;28;20397;-64
2023/07/20 07:53:39;;;;;;;5.13;4.13;;;;;;;38.59;20.70;97974.28;4937035;28;20043;-63
2023/07/20 07:56:07;;;;;;;4.10;3.70;;;;;;;37.07;21.75;97981.88;4937048;28;20054;-63
2023/07/20 07:58:32;;;;;;;4.75;3.60;;;;;;;36.87;22.14;97986.06;4944943;28;20058;-64
2023/07/20 08:00:57;;;;;;;3.88;3.47;;;;;;;36.67;22.09;97981.88;4956039;28;20468;-63
2023/07/20 08:03:24;;;;;;;5.70;3.92;;;;;;;36.73;22.50;97979.78;4955866;28;20034;-65
2023/07/20 08:05:49;;;;;;;4.43;4.03;;;;;;;37.72;22.06;97987.44;4954580;28;20401;-64
2023/07/20 08:08:14;;;;;;;5.20;4.03;;;;;;;39.45;20.37;97976.66;4956044;28;20049;-64
2023/07/20 08:10:40;;;;;;;4.60;4.20;;;;;;;40.86;19.19;97965.50;4954464;28;20824;-64
2023/07/20 08:13:05;;;;;;;5.50;4.13;;;;;;;41.44;18.73;97964.16;4956179;28;20038;-64
2023/07/20 08:15:30;;;;;;;5.68;4.60;;;;;;;41.85;18.58;97940.66;4955993;28;20065;-65
2023/07/20 08:17:55;;;;;;;4.78;4.47;;;;;;;42.04;18.48;97934.41;4955360;28;20053;-64
2023/07/20 08:20:26;;;;;;;4.72;4.38;;;;;;;41.52;18.53;97979.22;4955902;28;20054;-65
2023/07/20 08:22:52;;;;;;;5.63;4.97;;;;;;;41.56;18.67;97980.16;4955640;28;20063;-65
2023/07/20 08:25:17;;;;;;;8.18;4.93;;;;;;;42.31;18.06;97988.78;4955748;28;20054;-64
2023/07/20 08:27:42;;;;;;;4.78;4.45;;;;;;;42.53;17.46;97977.00;4955430;28;20051;-64
2023/07/20 08:30:08;;;;;;;5.28;4.88;;;;;;;41.72;17.84;97975.44;4955289;28;20411;-63
2023/07/20 08:32:33;;;;;;;5.05;4.55;;;;;;;40.71;18.41;97971.75;4955642;28;20076;-65
2023/07/20 08:34:59;;;;;;;5.78;5.18;;;;;;;40.39;19.02;97973.41;4955494;28;20054;-65
2023/07/20 08:37:24;;;;;;;5.13;4.63;;;;;;;40.07;19.08;97972.25;4955721;28;20056;-64
2023/07/20 08:39:49;;;;;;;6.32;4.55;;;;;;;39.45;19.13;97975.84;4955957;28;20077;-65
2023/07/20 08:42:15;;;;;;;4.22;3.83;;;;;;;39.03;19.91;97975.75;4955566;28;20058;-65
2023/07/20 08:44:42;;;;;;;5.25;4.60;;;;;;;38.39;20.62;97981.31;4955799;28;20382;-65
2023/07/20 08:47:09;;;;;;;8.30;4.80;;;;;;;39.02;20.61;97970.50;4955777;28;20050;-66
2023/07/20 08:49:35;;;;;;;6.63;4.20;;;;;;;40.44;19.76;97974.00;4955339;28;20061;-64
2023/07/20 08:52:03;;;;;;;7.35;5.07;;;;;;;41.54;19.10;97969.31;4955464;28;20587;-64
2023/07/20 08:54:32;;;;;;;5.35;4.95;;;;;;;42.65;18.18;97968.53;4954108;28;20054;-64
2023/07/20 08:57:01;;;;;;;5.88;5.40;;;;;;;43.73;16.75;97936.25;4955226;28;20062;-65
2023/07/20 08:59:29;;;;;;;8.13;7.32;;;;;;;44.56;16.74;97976.88;4955511;28;20046;-65
2023/07/20 09:01:56;;;;;;;6.68;6.18;;;;;;;43.83;16.98;97952.50;4955394;28;20053;-64
2023/07/20 09:04:21;;;;;;;6.38;5.90;;;;;;;43.80;17.17;97936.38;4955532;28;20053;-65
2023/07/20 09:06:49;;;;;;;7.03;6.47;;;;;;;43.78;17.02;97930.34;4955701;28;20046;-65
2023/07/20 09:09:14;;;;;;;5.85;5.43;;;;;;;42.45;17.64;97940.72;4955670;28;20050;-65
2023/07/20 09:11:40;;;;;;;5.80;5.20;;;;;;;40.60;18.83;97983.34;4955460;28;20053;-65
2023/07/20 09:14:07;;;;;;;5.22;4.78;;;;;;;38.59;20.33;97985.41;4954823;28;20165;-64
2023/07/20 09:16:46;;;;;;;4.75;4.30;;;;;;;36.59;22.19;97973.47;4955510;28;20042;-65
2023/07/20 09:19:11;;;;;;;6.05;3.95;;;;;;;34.60;24.16;97984.66;4955438;28;20046;-65
2023/07/20 09:21:37;;;;;;;5.20;3.80;;;;;;;32.93;26.20;98000.97;4971712;28;20050;-64
2023/07/20 09:24:02;;;;;;;4.35;3.35;;;;;;;32.47;27.53;97993.16;4958941;28;20508;-64
2023/07/20 09:26:28;;;;;;;6.20;4.25;;;;;;;34.80;26.13;97994.53;4958705;28;20038;-65
2023/07/20 09:28:54;;;;;;;4.65;3.92;;;;;;;37.72;23.42;97990.22;4958981;28;20046;-64
2023/07/20 09:31:21;;;;;;;6.15;4.47;;;;;;;40.47;20.82;97987.28;4958232;28;20049;-64
2023/07/20 09:33:48;;;;;;;5.70;4.65;;;;;;;42.56;18.77;97989.47;4957276;28;20042;-64
2023/07/20 09:36:13;;;;;;;5.88;5.20;;;;;;;43.83;17.51;97989.00;4954973;28;20039;-64
2023/07/20 09:38:43;;;;;;;9.00;6.57;;;;;;;45.10;16.93;97973.00;4946487;28;20050;-65
2023/07/20 09:41:15;;;;;;;7.78;7.15;;;;;;;46.54;16.02;97950.81;4956294;28;20081;-65
2023/07/20 09:43:41;;;;;;;10.75;8.77;;;;;;;47.43;15.40;97974.16;4945373;28;20051;-64
2023/07/20 09:46:06;;;;;;;10.50;9.75;;;;;;;48.16;14.83;97960.06;4942778;28;20047;-64
2023/07/20 09:48:32;;;;;;;11.48;10.48;;;;;;;48.78;14.17;97971.88;4940077;28;20057;-64
2023/07/20 09:50:57;;;;;;;13.20;12.30;;;;;;;48.90;14.11;97957.38;4946377;28;20046;-66
2023/07/20 09:53:25;;;;;;;15.85;14.80;;;;;;;49.36;13.50;97959.38;4942147;28;20054;-64
2023/07/20 09:55:51;;;;;;;14.27;13.32;;;;;;;48.35;13.71;97957.66;4941973;28;20351;-65
2023/07/20 09:58:18;;;;;;;12.02;11.10;;;;;;;46.08;14.98;97957.94;4941975;28;20050;-66
2023/07/20 10:00:49;;;;;;;9.20;8.60;;;;;;;43.83;16.50;97960.94;4945955;28;20042;-65
2023/07/20 10:03:19;;;;;;;8.15;7.35;;;;;;;42.94;17.30;97941.22;4946943;28;20441;-66
2023/07/20 10:05:51;;;;;;;7.43;6.65;;;;;;;41.63;18.09;97944.81;4943533;28;20043;-65
2023/07/20 10:08:18;;;;;;;8.27;7.03;;;;;;;42.18;18.34;97940.41;4941409;28;20074;-66
2023/07/20 10:10:45;;;;;;;7.82;7.13;;;;;;;43.64;17.11;97974.97;4942354;28;20065;-66
2023/07/20 10:13:25;;;;;;;8.85;7.90;;;;;;;45.80;15.61;97970.47;4939328;28;20611;-66
2023/07/20 10:15:55;;;;;;;9.70;9.10;;;;;;;46.42;14.93;97939.81;4957351;28;20410;-67
2023/07/20 10:18:39;;;;;;;9.45;8.77;;;;;;;45.79;15.41;97917.34;4945124;28;20058;-67
2023/07/20 10:21:07;;;;;;;9.15;8.25;;;;;;;44.09;16.27;97918.97;4942211;28;20038;-66
2023/07/20 10:23:33;;;;;;;7.70;7.00;;;;;;;43.62;17.01;97915.56;4938808;28;20042;-66
2023/07/20 10:26:00;;;;;;;7.90;7.30;;;;;;;43.87;16.89;97922.53;4938218;28;20046;-66
2023/07/20 10:28:26;;;;;;;9.18;7.97;;;;;;;44.30;16.79;97915.75;4945847;28;20049;-66
2023/07/20 10:30:53;;;;;;;7.40;6.70;;;;;;;43.94;17.14;97927.44;4949636;28;20047;-66
2023/07/20 10:33:19;;;;;;;7.25;6.60;;;;;;;42.45;18.07;97923.91;4941064;28;20498;-65
2023/07/20 10:35:54;;;;;;;6.68;5.82;;;;;;;40.68;19.56;97928.53;4942239;28;20047;-65
2023/07/20 10:38:20;;;;;;;14.15;5.72;;;;;;;38.25;21.63;97927.84;4941144;28;20038;-66
2023/07/20 10:40:55;;;;;;;5.60;4.82;;;;;;;36.59;23.76;97929.88;4940458;28;20043;-65
2023/07/20 10:43:21;;;;;;;5.60;4.72;;;;;;;34.29;25.54;97962.25;4942210;28;20041;-66
2023/07/20 10:45:51;;;;;;;8.00;4.45;;;;;;;32.70;27.33;97975.00;4943055;28;20419;-65
2023/07/20 10:48:19;;;;;;;4.63;4.13;;;;;;;31.28;28.69;97954.91;4955658;28;20061;-65
2023/07/20 10:51:05;;;;;;;8.10;3.65;;;;;;;30.09;30.58;97975.06;4944013;28;20122;-67
2023/07/20 10:53:30;;;;;;;6.38;4.30;;;;;;;29.05;31.79;97981.69;4955440;28;20058;-67
2023/07/20 10:56:12;;;;;;;9.98;4.68;;;;;;;28.49;33.01;97978.66;4955813;28;20050;-67
2023/07/20 10:58:37;;;;;;;7.22;4.80;;;;;;;27.64;34.62;97979.63;4939765;28;20046;-66
2023/07/20 11:01:05;;;;;;;5.38;4.05;;;;;;;27.15;36.14;97989.75;4937868;28;20449;-65
2023/07/20 11:06:56;;;;;;;6.07;4.40;;;;;;;26.01;40.05;98029.38;4956724;28;20046;-66
2023/07/20 11:09:46;;;;;;;10.57;4.75;;;;;;;25.37;41.58;98040.72;4956958;28;20049;-66
2023/07/20 11:12:17;;;;;;;5.85;3.45;;;;;;;24.40;45.00;98040.53;4955634;28;20038;-67
2023/07/20 11:15:03;;;;;;;4.65;3.25;;;;;;;24.29;46.49;98053.06;4956864;28;20416;-66
2023/07/20 11:17:31;;;;;;;4.57;3.75;;;;;;;24.09;46.35;98045.22;4956863;28;20042;-67
2023/07/20 11:20:00;;;;;;;9.32;4.75;;;;;;;24.30;47.46;98045.72;4955755;28;20038;-64
2023/07/20 11:22:34;;;;;;;7.80;3.30;;;;;;;24.42;47.59;98035.66;4940479;28;20065;-63
2023/07/20 11:24:59;;;;;;;3.97;3.15;;;;;;;24.46;46.75;98036.88;4939547;28;20716;-64
2023/07/20 11:27:25;;;;;;;6.13;3.67;;;;;;;24.50;46.80;98027.97;4941536;28;20046;-65
2023/07/20 11:29:50;;;;;;;3.35;2.78;;;;;;;24.54;46.90;98031.06;4942528;28;20052;-64
2023/07/20 11:32:25;;;;;;;7.15;3.67;;;;;;;24.67;47.46;98027.25;4924503;28;20058;-65
2023/07/20 11:34:51;;;;;;;5.57;3.58;;;;;;;24.58;46.58;98022.16;4954749;28;20055;-64
2023/07/20 11:37:18;;;;;;;6.03;3.30;;;;;;;24.44;47.85;98028.09;4940705;28;20414;-64